sensor_id;sensor_type;location;lat;lon;timestamp;P1;durP1;ratioP1;P2;durP2;ratioP2
11255;SDS011;5685;52.384;13.420;2022-10-16T00:00:32;10.60;;;10.00;;
11255;SDS011;5685;52.384;13.420;2022-10-16T00:03:37;10.80;;;10.20;;
11255;SDS011;5685;52.384;13.420;2022-10-16T00:06:39;9.83;;;9.33;;
11255;SDS011;5685;52.384;13.420;2022-10-16T00:09:43;10.47;;;9.97;;
11255;SDS011;5685;52.384;13.420;2022-10-16T00:12:45;10.80;;;10.20;;
11255;SDS011;5685;52.384;13.420;2022-10-16T00:15:47;10.10;;;9.50;;
11255;SDS011;5685;52.384;13.420;2022-10-16T00:18:49;10.50;;;9.90;;
11255;SDS011;5685;52.384;13.420;2022-10-16T00:21:52;10.07;;;9.57;;
11255;SDS011;5685;52.384;13.420;2022-10-16T00:24:55;10.77;;;10.10;;
11255;SDS011;5685;52.384;13.420;2022-10-16T00:27:58;10.03;;;9.53;;
11255;SDS011;5685;52.384;13.420;2022-10-16T00:31:02;10.47;;;9.90;;
11255;SDS011;5685;52.384;13.420;2022-10-16T00:34:05;10.57;;;9.97;;
11255;SDS011;5685;52.384;13.420;2022-10-16T00:37:08;10.10;;;9.60;;
11255;SDS011;5685;52.384;13.420;2022-10-16T00:40:11;10.13;;;9.63;;
11255;SDS011;5685;52.384;13.420;2022-10-16T00:43:14;10.13;;;9.63;;
11255;SDS011;5685;52.384;13.420;2022-10-16T00:46:37;10.40;;;9.80;;
11255;SDS011;5685;52.384;13.420;2022-10-16T00:49:42;10.40;;;9.80;;
11255;SDS011;5685;52.384;13.420;2022-10-16T00:52:46;9.70;;;9.20;;
11255;SDS011;5685;52.384;13.420;2022-10-16T00:55:51;10.27;;;9.77;;
11255;SDS011;5685;52.384;13.420;2022-10-16T00:58:54;10.27;;;9.67;;
11255;SDS011;5685;52.384;13.420;2022-10-16T01:01:56;10.07;;;9.53;;
11255;SDS011;5685;52.384;13.420;2022-10-16T01:04:59;10.13;;;9.53;;
11255;SDS011;5685;52.384;13.420;2022-10-16T01:08:04;10.77;;;10.27;;
11255;SDS011;5685;52.384;13.420;2022-10-16T01:11:16;10.13;;;9.63;;
11255;SDS011;5685;52.384;13.420;2022-10-16T01:14:26;10.27;;;9.77;;
11255;SDS011;5685;52.384;13.420;2022-10-16T01:17:39;10.17;;;9.67;;
11255;SDS011;5685;52.384;13.420;2022-10-16T01:20:47;11.13;;;10.43;;
11255;SDS011;5685;52.384;13.420;2022-10-16T01:23:57;10.33;;;9.83;;
11255;SDS011;5685;52.384;13.420;2022-10-16T01:27:10;9.67;;;9.27;;
11255;SDS011;5685;52.384;13.420;2022-10-16T01:30:16;10.70;;;10.20;;
11255;SDS011;5685;52.384;13.420;2022-10-16T01:33:24;9.93;;;9.50;;
11255;SDS011;5685;52.384;13.420;2022-10-16T01:36:34;10.30;;;9.80;;
11255;SDS011;5685;52.384;13.420;2022-10-16T01:39:42;10.73;;;10.13;;
11255;SDS011;5685;52.384;13.420;2022-10-16T01:42:52;11.23;;;10.63;;
11255;SDS011;5685;52.384;13.420;2022-10-16T01:45:57;9.83;;;9.33;;
11255;SDS011;5685;52.384;13.420;2022-10-16T01:49:02;10.13;;;9.63;;
11255;SDS011;5685;52.384;13.420;2022-10-16T01:52:06;9.30;;;8.90;;
11255;SDS011;5685;52.384;13.420;2022-10-16T01:55:14;10.17;;;9.67;;
11255;SDS011;5685;52.384;13.420;2022-10-16T01:58:21;9.73;;;9.23;;
11255;SDS011;5685;52.384;13.420;2022-10-16T02:01:26;10.37;;;9.77;;
11255;SDS011;5685;52.384;13.420;2022-10-16T02:04:32;10.07;;;9.57;;
11255;SDS011;5685;52.384;13.420;2022-10-16T02:07:38;9.87;;;9.37;;
11255;SDS011;5685;52.384;13.420;2022-10-16T02:10:42;9.80;;;9.30;;
11255;SDS011;5685;52.384;13.420;2022-10-16T02:13:46;10.00;;;9.50;;
11255;SDS011;5685;52.384;13.420;2022-10-16T02:16:54;10.07;;;9.57;;
11255;SDS011;5685;52.384;13.420;2022-10-16T02:19:56;10.27;;;9.77;;
11255;SDS011;5685;52.384;13.420;2022-10-16T02:22:59;9.90;;;9.40;;
11255;SDS011;5685;52.384;13.420;2022-10-16T02:26:04;10.20;;;9.70;;
11255;SDS011;5685;52.384;13.420;2022-10-16T02:29:12;10.83;;;10.33;;
11255;SDS011;5685;52.384;13.420;2022-10-16T02:32:20;10.23;;;9.73;;
11255;SDS011;5685;52.384;13.420;2022-10-16T02:35:25;10.23;;;9.73;;
11255;SDS011;5685;52.384;13.420;2022-10-16T02:38:29;9.53;;;9.03;;
11255;SDS011;5685;52.384;13.420;2022-10-16T02:41:32;9.90;;;9.40;;
11255;SDS011;5685;52.384;13.420;2022-10-16T02:44:36;9.83;;;9.33;;
11255;SDS011;5685;52.384;13.420;2022-10-16T02:47:38;9.57;;;9.07;;
11255;SDS011;5685;52.384;13.420;2022-10-16T02:50:40;10.53;;;9.97;;
11255;SDS011;5685;52.384;13.420;2022-10-16T02:53:42;10.40;;;9.70;;
11255;SDS011;5685;52.384;13.420;2022-10-16T02:56:45;10.33;;;9.83;;
11255;SDS011;5685;52.384;13.420;2022-10-16T02:59:49;9.80;;;9.40;;
11255;SDS011;5685;52.384;13.420;2022-10-16T03:02:51;9.40;;;9.00;;
11255;SDS011;5685;52.384;13.420;2022-10-16T03:05:53;9.87;;;9.37;;
11255;SDS011;5685;52.384;13.420;2022-10-16T03:08:55;9.90;;;9.40;;
11255;SDS011;5685;52.384;13.420;2022-10-16T03:11:58;10.03;;;9.53;;
11255;SDS011;5685;52.384;13.420;2022-10-16T03:15:01;9.70;;;9.20;;
11255;SDS011;5685;52.384;13.420;2022-10-16T03:18:04;9.23;;;8.83;;
11255;SDS011;5685;52.384;13.420;2022-10-16T03:21:06;10.43;;;9.80;;
11255;SDS011;5685;52.384;13.420;2022-10-16T03:24:09;10.17;;;9.67;;
11255;SDS011;5685;52.384;13.420;2022-10-16T03:27:11;9.87;;;9.37;;
11255;SDS011;5685;52.384;13.420;2022-10-16T03:30:15;10.10;;;9.60;;
11255;SDS011;5685;52.384;13.420;2022-10-16T03:33:17;9.47;;;9.00;;
11255;SDS011;5685;52.384;13.420;2022-10-16T03:36:19;10.00;;;9.50;;
11255;SDS011;5685;52.384;13.420;2022-10-16T03:39:21;10.03;;;9.47;;
11255;SDS011;5685;52.384;13.420;2022-10-16T03:42:24;10.30;;;9.80;;
11255;SDS011;5685;52.384;13.420;2022-10-16T03:45:27;9.43;;;8.90;;
11255;SDS011;5685;52.384;13.420;2022-10-16T03:48:30;9.80;;;9.30;;
11255;SDS011;5685;52.384;13.420;2022-10-16T03:51:32;9.80;;;9.30;;
11255;SDS011;5685;52.384;13.420;2022-10-16T03:54:34;10.17;;;9.67;;
11255;SDS011;5685;52.384;13.420;2022-10-16T03:57:36;10.43;;;9.93;;
11255;SDS011;5685;52.384;13.420;2022-10-16T04:00:41;10.20;;;9.70;;
11255;SDS011;5685;52.384;13.420;2022-10-16T04:03:43;10.20;;;9.70;;
11255;SDS011;5685;52.384;13.420;2022-10-16T04:06:45;9.70;;;9.30;;
11255;SDS011;5685;52.384;13.420;2022-10-16T04:09:47;9.93;;;9.43;;
11255;SDS011;5685;52.384;13.420;2022-10-16T04:12:52;9.93;;;9.43;;
11255;SDS011;5685;52.384;13.420;2022-10-16T04:15:57;10.20;;;9.70;;
11255;SDS011;5685;52.384;13.420;2022-10-16T04:18:59;10.20;;;9.70;;
11255;SDS011;5685;52.384;13.420;2022-10-16T04:22:01;10.40;;;9.80;;
11255;SDS011;5685;52.384;13.420;2022-10-16T04:25:04;10.03;;;9.53;;
11255;SDS011;5685;52.384;13.420;2022-10-16T04:28:06;10.13;;;9.60;;
11255;SDS011;5685;52.384;13.420;2022-10-16T04:31:10;10.30;;;9.80;;
11255;SDS011;5685;52.384;13.420;2022-10-16T04:34:12;9.90;;;9.40;;
11255;SDS011;5685;52.384;13.420;2022-10-16T04:37:14;10.20;;;9.70;;
11255;SDS011;5685;52.384;13.420;2022-10-16T04:40:17;9.90;;;9.40;;
11255;SDS011;5685;52.384;13.420;2022-10-16T04:43:19;10.10;;;9.60;;
11255;SDS011;5685;52.384;13.420;2022-10-16T04:46:24;10.17;;;9.67;;
11255;SDS011;5685;52.384;13.420;2022-10-16T04:49:26;10.43;;;9.93;;
11255;SDS011;5685;52.384;13.420;2022-10-16T04:52:28;10.30;;;9.80;;
11255;SDS011;5685;52.384;13.420;2022-10-16T04:55:31;9.90;;;9.40;;
11255;SDS011;5685;52.384;13.420;2022-10-16T04:58:33;10.50;;;10.00;;
11255;SDS011;5685;52.384;13.420;2022-10-16T05:01:37;10.57;;;10.07;;
11255;SDS011;5685;52.384;13.420;2022-10-16T05:04:39;9.97;;;9.50;;
11255;SDS011;5685;52.384;13.420;2022-10-16T05:07:41;10.50;;;10.00;;
11255;SDS011;5685;52.384;13.420;2022-10-16T05:10:44;9.43;;;8.93;;
11255;SDS011;5685;52.384;13.420;2022-10-16T05:13:46;10.10;;;9.60;;
11255;SDS011;5685;52.384;13.420;2022-10-16T05:16:50;9.80;;;9.40;;
11255;SDS011;5685;52.384;13.420;2022-10-16T05:19:52;9.77;;;9.27;;
11255;SDS011;5685;52.384;13.420;2022-10-16T05:22:54;9.77;;;9.17;;
11255;SDS011;5685;52.384;13.420;2022-10-16T05:25:57;10.17;;;9.67;;
11255;SDS011;5685;52.384;13.420;2022-10-16T05:29:00;10.17;;;9.67;;
11255;SDS011;5685;52.384;13.420;2022-10-16T05:32:04;10.00;;;9.50;;
11255;SDS011;5685;52.384;13.420;2022-10-16T05:35:06;9.73;;;9.23;;
11255;SDS011;5685;52.384;13.420;2022-10-16T05:38:09;9.50;;;9.10;;
11255;SDS011;5685;52.384;13.420;2022-10-16T05:41:11;9.80;;;9.30;;
11255;SDS011;5685;52.384;13.420;2022-10-16T05:44:13;9.80;;;9.30;;
11255;SDS011;5685;52.384;13.420;2022-10-16T05:47:17;9.60;;;9.20;;
11255;SDS011;5685;52.384;13.420;2022-10-16T05:50:20;10.13;;;9.63;;
11255;SDS011;5685;52.384;13.420;2022-10-16T05:53:23;9.83;;;9.33;;
11255;SDS011;5685;52.384;13.420;2022-10-16T05:56:25;10.03;;;9.53;;
11255;SDS011;5685;52.384;13.420;2022-10-16T05:59:28;10.47;;;9.87;;
11255;SDS011;5685;52.384;13.420;2022-10-16T06:02:32;10.23;;;9.73;;
11255;SDS011;5685;52.384;13.420;2022-10-16T06:05:34;10.10;;;9.60;;
11255;SDS011;5685;52.384;13.420;2022-10-16T06:08:36;10.17;;;9.67;;
11255;SDS011;5685;52.384;13.420;2022-10-16T06:11:39;10.00;;;9.50;;
11255;SDS011;5685;52.384;13.420;2022-10-16T06:14:41;9.53;;;9.07;;
11255;SDS011;5685;52.384;13.420;2022-10-16T06:17:45;9.60;;;9.20;;
11255;SDS011;5685;52.384;13.420;2022-10-16T06:20:47;9.67;;;9.27;;
11255;SDS011;5685;52.384;13.420;2022-10-16T06:23:49;9.20;;;8.80;;
11255;SDS011;5685;52.384;13.420;2022-10-16T06:26:51;10.60;;;10.00;;
11255;SDS011;5685;52.384;13.420;2022-10-16T06:29:53;9.53;;;9.03;;
11255;SDS011;5685;52.384;13.420;2022-10-16T06:32:57;9.90;;;9.40;;
11255;SDS011;5685;52.384;13.420;2022-10-16T06:36:00;10.20;;;9.70;;
11255;SDS011;5685;52.384;13.420;2022-10-16T06:39:03;10.17;;;9.47;;
11255;SDS011;5685;52.384;13.420;2022-10-16T06:42:07;9.90;;;9.40;;
11255;SDS011;5685;52.384;13.420;2022-10-16T06:45:09;10.07;;;9.50;;
11255;SDS011;5685;52.384;13.420;2022-10-16T06:48:14;9.87;;;9.37;;
11255;SDS011;5685;52.384;13.420;2022-10-16T06:51:16;9.57;;;9.07;;
11255;SDS011;5685;52.384;13.420;2022-10-16T06:54:20;9.50;;;9.00;;
11255;SDS011;5685;52.384;13.420;2022-10-16T06:57:22;9.43;;;9.03;;
11255;SDS011;5685;52.384;13.420;2022-10-16T07:00:24;9.97;;;9.50;;
11255;SDS011;5685;52.384;13.420;2022-10-16T07:03:27;9.27;;;8.87;;
11255;SDS011;5685;52.384;13.420;2022-10-16T07:06:30;9.33;;;8.90;;
11255;SDS011;5685;52.384;13.420;2022-10-16T07:09:34;9.40;;;9.00;;
11255;SDS011;5685;52.384;13.420;2022-10-16T07:12:36;9.40;;;9.00;;
11255;SDS011;5685;52.384;13.420;2022-10-16T07:15:38;9.40;;;9.00;;
11255;SDS011;5685;52.384;13.420;2022-10-16T07:18:43;9.67;;;9.27;;
11255;SDS011;5685;52.384;13.420;2022-10-16T07:21:46;10.40;;;9.70;;
11255;SDS011;5685;52.384;13.420;2022-10-16T07:24:48;9.10;;;8.70;;
11255;SDS011;5685;52.384;13.420;2022-10-16T07:27:51;9.73;;;9.23;;
11255;SDS011;5685;52.384;13.420;2022-10-16T07:30:59;9.77;;;9.27;;
11255;SDS011;5685;52.384;13.420;2022-10-16T07:34:04;9.20;;;8.80;;
11255;SDS011;5685;52.384;13.420;2022-10-16T07:37:06;9.70;;;9.17;;
11255;SDS011;5685;52.384;13.420;2022-10-16T07:40:09;10.03;;;9.53;;
11255;SDS011;5685;52.384;13.420;2022-10-16T07:43:11;10.20;;;9.60;;
11255;SDS011;5685;52.384;13.420;2022-10-16T07:46:14;9.97;;;9.47;;
11255;SDS011;5685;52.384;13.420;2022-10-16T07:49:19;10.30;;;9.80;;
11255;SDS011;5685;52.384;13.420;2022-10-16T07:52:22;10.13;;;9.63;;
11255;SDS011;5685;52.384;13.420;2022-10-16T07:55:24;9.93;;;9.47;;
11255;SDS011;5685;52.384;13.420;2022-10-16T07:58:26;9.53;;;9.13;;
11255;SDS011;5685;52.384;13.420;2022-10-16T08:01:28;10.17;;;9.67;;
11255;SDS011;5685;52.384;13.420;2022-10-16T08:04:32;9.83;;;9.33;;
11255;SDS011;5685;52.384;13.420;2022-10-16T08:07:34;9.87;;;9.47;;
11255;SDS011;5685;52.384;13.420;2022-10-16T08:10:36;9.50;;;9.10;;
11255;SDS011;5685;52.384;13.420;2022-10-16T08:13:38;10.43;;;9.93;;
11255;SDS011;5685;52.384;13.420;2022-10-16T08:16:41;9.87;;;9.37;;
11255;SDS011;5685;52.384;13.420;2022-10-16T08:19:48;9.67;;;9.07;;
11255;SDS011;5685;52.384;13.420;2022-10-16T08:22:50;9.30;;;8.90;;
11255;SDS011;5685;52.384;13.420;2022-10-16T08:25:52;9.67;;;9.27;;
11255;SDS011;5685;52.384;13.420;2022-10-16T08:28:55;9.80;;;9.33;;
11255;SDS011;5685;52.384;13.420;2022-10-16T08:31:57;9.47;;;9.07;;
11255;SDS011;5685;52.384;13.420;2022-10-16T08:35:01;10.13;;;9.63;;
11255;SDS011;5685;52.384;13.420;2022-10-16T08:38:03;9.10;;;8.70;;
11255;SDS011;5685;52.384;13.420;2022-10-16T08:41:23;9.73;;;9.23;;
11255;SDS011;5685;52.384;13.420;2022-10-16T08:45:08;9.27;;;8.87;;
11255;SDS011;5685;52.384;13.420;2022-10-16T08:48:27;9.70;;;9.20;;
11255;SDS011;5685;52.384;13.420;2022-10-16T08:51:37;9.77;;;9.27;;
11255;SDS011;5685;52.384;13.420;2022-10-16T08:54:41;9.30;;;8.90;;
11255;SDS011;5685;52.384;13.420;2022-10-16T08:57:46;9.20;;;8.80;;
11255;SDS011;5685;52.384;13.420;2022-10-16T09:00:49;9.60;;;9.20;;
11255;SDS011;5685;52.384;13.420;2022-10-16T09:04:01;9.60;;;9.10;;
11255;SDS011;5685;52.384;13.420;2022-10-16T09:07:35;10.03;;;9.53;;
11255;SDS011;5685;52.384;13.420;2022-10-16T09:10:45;9.40;;;9.00;;
11255;SDS011;5685;52.384;13.420;2022-10-16T09:13:56;10.17;;;9.67;;
11255;SDS011;5685;52.384;13.420;2022-10-16T09:17:07;9.60;;;9.20;;
11255;SDS011;5685;52.384;13.420;2022-10-16T09:20:28;9.70;;;9.20;;
11255;SDS011;5685;52.384;13.420;2022-10-16T09:23:38;10.37;;;9.87;;
11255;SDS011;5685;52.384;13.420;2022-10-16T09:26:40;10.13;;;9.63;;
11255;SDS011;5685;52.384;13.420;2022-10-16T09:29:42;9.77;;;9.33;;
11255;SDS011;5685;52.384;13.420;2022-10-16T09:32:45;9.77;;;9.37;;
11255;SDS011;5685;52.384;13.420;2022-10-16T09:35:50;9.97;;;9.47;;
11255;SDS011;5685;52.384;13.420;2022-10-16T09:42:16;9.67;;;9.20;;
11255;SDS011;5685;52.384;13.420;2022-10-16T09:45:21;10.03;;;9.53;;
11255;SDS011;5685;52.384;13.420;2022-10-16T09:48:26;9.87;;;9.27;;
11255;SDS011;5685;52.384;13.420;2022-10-16T09:51:33;9.63;;;9.23;;
11255;SDS011;5685;52.384;13.420;2022-10-16T09:54:39;9.20;;;8.70;;
11255;SDS011;5685;52.384;13.420;2022-10-16T09:57:52;9.60;;;9.20;;
11255;SDS011;5685;52.384;13.420;2022-10-16T10:00:56;10.03;;;9.53;;
11255;SDS011;5685;52.384;13.420;2022-10-16T10:03:58;9.77;;;9.33;;
11255;SDS011;5685;52.384;13.420;2022-10-16T10:07:02;9.80;;;9.30;;
11255;SDS011;5685;52.384;13.420;2022-10-16T10:10:18;10.10;;;9.60;;
11255;SDS011;5685;52.384;13.420;2022-10-16T10:13:24;10.10;;;9.60;;
11255;SDS011;5685;52.384;13.420;2022-10-16T10:16:27;10.17;;;9.67;;
11255;SDS011;5685;52.384;13.420;2022-10-16T10:19:29;9.57;;;9.07;;
11255;SDS011;5685;52.384;13.420;2022-10-16T10:22:32;10.00;;;9.60;;
11255;SDS011;5685;52.384;13.420;2022-10-16T10:25:48;10.23;;;9.73;;
11255;SDS011;5685;52.384;13.420;2022-10-16T10:28:55;9.80;;;9.30;;
11255;SDS011;5685;52.384;13.420;2022-10-16T10:32:09;9.83;;;9.40;;
11255;SDS011;5685;52.384;13.420;2022-10-16T10:35:22;10.37;;;9.87;;
11255;SDS011;5685;52.384;13.420;2022-10-16T10:38:31;10.03;;;9.53;;
11255;SDS011;5685;52.384;13.420;2022-10-16T10:41:55;9.80;;;9.40;;
11255;SDS011;5685;52.384;13.420;2022-10-16T10:45:21;10.37;;;9.87;;
11255;SDS011;5685;52.384;13.420;2022-10-16T10:48:34;9.37;;;8.87;;
11255;SDS011;5685;52.384;13.420;2022-10-16T10:52:02;9.60;;;9.20;;
11255;SDS011;5685;52.384;13.420;2022-10-16T10:55:23;10.00;;;9.50;;
11255;SDS011;5685;52.384;13.420;2022-10-16T11:02:04;9.40;;;9.00;;
11255;SDS011;5685;52.384;13.420;2022-10-16T11:05:27;10.03;;;9.57;;
11255;SDS011;5685;52.384;13.420;2022-10-16T11:08:43;9.87;;;9.37;;
11255;SDS011;5685;52.384;13.420;2022-10-16T11:11:51;9.00;;;8.60;;
11255;SDS011;5685;52.384;13.420;2022-10-16T11:15:02;9.50;;;9.10;;
11255;SDS011;5685;52.384;13.420;2022-10-16T11:18:16;9.67;;;9.27;;
11255;SDS011;5685;52.384;13.420;2022-10-16T11:21:22;10.00;;;9.50;;
11255;SDS011;5685;52.384;13.420;2022-10-16T11:24:27;9.73;;;9.33;;
11255;SDS011;5685;52.384;13.420;2022-10-16T11:27:43;9.73;;;9.33;;
11255;SDS011;5685;52.384;13.420;2022-10-16T11:30:53;10.10;;;9.60;;
11255;SDS011;5685;52.384;13.420;2022-10-16T11:34:03;9.10;;;8.70;;
11255;SDS011;5685;52.384;13.420;2022-10-16T11:37:17;8.97;;;8.57;;
11255;SDS011;5685;52.384;13.420;2022-10-16T11:40:23;9.40;;;9.00;;
11255;SDS011;5685;52.384;13.420;2022-10-16T11:43:32;10.37;;;9.87;;
11255;SDS011;5685;52.384;13.420;2022-10-16T11:46:40;9.80;;;9.40;;
11255;SDS011;5685;52.384;13.420;2022-10-16T11:49:50;9.53;;;9.13;;
11255;SDS011;5685;52.384;13.420;2022-10-16T11:53:01;9.83;;;9.43;;
11255;SDS011;5685;52.384;13.420;2022-10-16T11:56:19;10.03;;;9.60;;
11255;SDS011;5685;52.384;13.420;2022-10-16T11:59:24;9.27;;;8.87;;
11255;SDS011;5685;52.384;13.420;2022-10-16T12:02:36;9.90;;;9.40;;
11255;SDS011;5685;52.384;13.420;2022-10-16T12:05:52;9.80;;;9.30;;
11255;SDS011;5685;52.384;13.420;2022-10-16T12:09:09;10.20;;;9.70;;
11255;SDS011;5685;52.384;13.420;2022-10-16T12:12:25;9.53;;;9.13;;
11255;SDS011;5685;52.384;13.420;2022-10-16T12:15:30;10.07;;;9.57;;
11255;SDS011;5685;52.384;13.420;2022-10-16T12:18:36;9.23;;;8.83;;
11255;SDS011;5685;52.384;13.420;2022-10-16T12:21:39;10.93;;;9.83;;
11255;SDS011;5685;52.384;13.420;2022-10-16T12:24:42;9.83;;;9.40;;
11255;SDS011;5685;52.384;13.420;2022-10-16T12:27:45;10.47;;;9.97;;
11255;SDS011;5685;52.384;13.420;2022-10-16T12:30:55;9.93;;;9.43;;
11255;SDS011;5685;52.384;13.420;2022-10-16T12:34:01;10.33;;;9.73;;
11255;SDS011;5685;52.384;13.420;2022-10-16T12:37:13;12.23;;;9.77;;
11255;SDS011;5685;52.384;13.420;2022-10-16T12:40:26;10.33;;;9.63;;
11255;SDS011;5685;52.384;13.420;2022-10-16T12:43:35;9.80;;;9.30;;
11255;SDS011;5685;52.384;13.420;2022-10-16T12:46:42;10.33;;;9.73;;
11255;SDS011;5685;52.384;13.420;2022-10-16T12:49:49;10.13;;;9.63;;
11255;SDS011;5685;52.384;13.420;2022-10-16T12:52:53;9.60;;;9.20;;
11255;SDS011;5685;52.384;13.420;2022-10-16T12:55:58;10.30;;;9.53;;
11255;SDS011;5685;52.384;13.420;2022-10-16T12:59:09;9.93;;;9.13;;
11255;SDS011;5685;52.384;13.420;2022-10-16T13:02:31;10.40;;;9.73;;
11255;SDS011;5685;52.384;13.420;2022-10-16T13:06:03;9.67;;;9.27;;
11255;SDS011;5685;52.384;13.420;2022-10-16T13:09:25;9.27;;;8.87;;
11255;SDS011;5685;52.384;13.420;2022-10-16T13:16:18;9.53;;;9.03;;
11255;SDS011;5685;52.384;13.420;2022-10-16T13:19:32;10.37;;;9.80;;
11255;SDS011;5685;52.384;13.420;2022-10-16T13:22:48;9.20;;;8.80;;
11255;SDS011;5685;52.384;13.420;2022-10-16T13:26:06;9.63;;;9.23;;
11255;SDS011;5685;52.384;13.420;2022-10-16T13:29:18;9.50;;;9.10;;
11255;SDS011;5685;52.384;13.420;2022-10-16T13:32:22;10.23;;;9.73;;
11255;SDS011;5685;52.384;13.420;2022-10-16T13:35:25;9.77;;;9.37;;
11255;SDS011;5685;52.384;13.420;2022-10-16T13:38:31;10.20;;;9.70;;
11255;SDS011;5685;52.384;13.420;2022-10-16T13:41:35;9.60;;;9.10;;
11255;SDS011;5685;52.384;13.420;2022-10-16T13:44:39;9.50;;;9.00;;
11255;SDS011;5685;52.384;13.420;2022-10-16T13:47:44;9.93;;;9.47;;
11255;SDS011;5685;52.384;13.420;2022-10-16T13:50:46;9.80;;;9.30;;
11255;SDS011;5685;52.384;13.420;2022-10-16T13:54:07;9.50;;;9.10;;
11255;SDS011;5685;52.384;13.420;2022-10-16T13:57:13;9.70;;;9.30;;
11255;SDS011;5685;52.384;13.420;2022-10-16T14:00:19;9.90;;;9.50;;
11255;SDS011;5685;52.384;13.420;2022-10-16T14:03:23;9.73;;;9.33;;
11255;SDS011;5685;52.384;13.420;2022-10-16T14:06:27;9.43;;;9.03;;
11255;SDS011;5685;52.384;13.420;2022-10-16T14:09:30;10.80;;;10.30;;
11255;SDS011;5685;52.384;13.420;2022-10-16T14:12:34;9.73;;;9.33;;
11255;SDS011;5685;52.384;13.420;2022-10-16T14:15:36;9.83;;;9.43;;
11255;SDS011;5685;52.384;13.420;2022-10-16T14:18:38;9.93;;;9.53;;
11255;SDS011;5685;52.384;13.420;2022-10-16T14:21:41;10.00;;;9.50;;
11255;SDS011;5685;52.384;13.420;2022-10-16T14:24:44;10.03;;;9.63;;
11255;SDS011;5685;52.384;13.420;2022-10-16T14:27:55;10.63;;;10.13;;
11255;SDS011;5685;52.384;13.420;2022-10-16T14:31:01;10.00;;;9.60;;
11255;SDS011;5685;52.384;13.420;2022-10-16T14:34:24;9.50;;;9.00;;
11255;SDS011;5685;52.384;13.420;2022-10-16T14:37:28;9.60;;;9.20;;
11255;SDS011;5685;52.384;13.420;2022-10-16T14:40:33;9.27;;;8.87;;
11255;SDS011;5685;52.384;13.420;2022-10-16T14:43:37;10.20;;;9.70;;
11255;SDS011;5685;52.384;13.420;2022-10-16T14:46:42;10.63;;;9.70;;
11255;SDS011;5685;52.384;13.420;2022-10-16T14:49:45;10.03;;;9.60;;
11255;SDS011;5685;52.384;13.420;2022-10-16T14:52:47;10.17;;;9.67;;
11255;SDS011;5685;52.384;13.420;2022-10-16T14:55:51;10.20;;;9.70;;
11255;SDS011;5685;52.384;13.420;2022-10-16T14:58:53;10.53;;;10.03;;
11255;SDS011;5685;52.384;13.420;2022-10-16T15:01:56;9.47;;;9.07;;
11255;SDS011;5685;52.384;13.420;2022-10-16T15:04:58;10.43;;;9.83;;
11255;SDS011;5685;52.384;13.420;2022-10-16T15:08:13;10.17;;;9.70;;
11255;SDS011;5685;52.384;13.420;2022-10-16T15:11:18;9.80;;;9.30;;
11255;SDS011;5685;52.384;13.420;2022-10-16T15:14:20;10.37;;;9.77;;
11255;SDS011;5685;52.384;13.420;2022-10-16T15:17:22;10.13;;;9.63;;
11255;SDS011;5685;52.384;13.420;2022-10-16T15:20:25;10.27;;;9.77;;
11255;SDS011;5685;52.384;13.420;2022-10-16T15:23:28;9.93;;;9.47;;
11255;SDS011;5685;52.384;13.420;2022-10-16T15:26:31;10.47;;;9.97;;
11255;SDS011;5685;52.384;13.420;2022-10-16T15:29:33;10.83;;;10.33;;
11255;SDS011;5685;52.384;13.420;2022-10-16T15:32:35;9.80;;;9.30;;
11255;SDS011;5685;52.384;13.420;2022-10-16T15:35:37;10.80;;;10.20;;
11255;SDS011;5685;52.384;13.420;2022-10-16T15:38:39;10.23;;;9.73;;
11255;SDS011;5685;52.384;13.420;2022-10-16T15:41:44;10.00;;;9.53;;
11255;SDS011;5685;52.384;13.420;2022-10-16T15:44:50;9.90;;;9.43;;
11255;SDS011;5685;52.384;13.420;2022-10-16T15:47:52;10.43;;;9.93;;
11255;SDS011;5685;52.384;13.420;2022-10-16T15:50:54;10.20;;;9.70;;
11255;SDS011;5685;52.384;13.420;2022-10-16T15:53:57;10.80;;;10.30;;
11255;SDS011;5685;52.384;13.420;2022-10-16T15:57:03;10.20;;;9.63;;
11255;SDS011;5685;52.384;13.420;2022-10-16T16:00:06;9.20;;;8.80;;
11255;SDS011;5685;52.384;13.420;2022-10-16T16:03:09;10.10;;;9.63;;
11255;SDS011;5685;52.384;13.420;2022-10-16T16:06:12;10.47;;;9.97;;
11255;SDS011;5685;52.384;13.420;2022-10-16T16:09:15;10.27;;;9.77;;
11255;SDS011;5685;52.384;13.420;2022-10-16T16:12:19;10.10;;;9.60;;
11255;SDS011;5685;52.384;13.420;2022-10-16T16:15:22;10.37;;;9.87;;
11255;SDS011;5685;52.384;13.420;2022-10-16T16:18:24;10.10;;;9.60;;
11255;SDS011;5685;52.384;13.420;2022-10-16T16:21:26;10.40;;;9.90;;
11255;SDS011;5685;52.384;13.420;2022-10-16T16:24:29;10.40;;;9.90;;
11255;SDS011;5685;52.384;13.420;2022-10-16T16:27:32;10.30;;;9.80;;
11255;SDS011;5685;52.384;13.420;2022-10-16T16:30:34;10.37;;;9.87;;
11255;SDS011;5685;52.384;13.420;2022-10-16T16:33:37;10.33;;;9.83;;
11255;SDS011;5685;52.384;13.420;2022-10-16T16:36:39;10.07;;;9.57;;
11255;SDS011;5685;52.384;13.420;2022-10-16T16:39:41;10.20;;;9.70;;
11255;SDS011;5685;52.384;13.420;2022-10-16T16:42:46;10.23;;;9.73;;
11255;SDS011;5685;52.384;13.420;2022-10-16T16:45:49;10.73;;;10.13;;
11255;SDS011;5685;52.384;13.420;2022-10-16T16:48:51;11.07;;;10.47;;
11255;SDS011;5685;52.384;13.420;2022-10-16T16:51:55;11.37;;;10.73;;
11255;SDS011;5685;52.384;13.420;2022-10-16T16:54:57;12.20;;;11.50;;
11255;SDS011;5685;52.384;13.420;2022-10-16T16:58:01;12.37;;;11.63;;
11255;SDS011;5685;52.384;13.420;2022-10-16T17:01:04;13.40;;;12.50;;
11255;SDS011;5685;52.384;13.420;2022-10-16T17:04:07;14.17;;;13.17;;
11255;SDS011;5685;52.384;13.420;2022-10-16T17:07:10;13.93;;;12.83;;
11255;SDS011;5685;52.384;13.420;2022-10-16T17:10:12;13.97;;;12.87;;
11255;SDS011;5685;52.384;13.420;2022-10-16T17:13:16;14.00;;;13.00;;
11255;SDS011;5685;52.384;13.420;2022-10-16T17:16:18;15.37;;;14.10;;
11255;SDS011;5685;52.384;13.420;2022-10-16T17:19:20;13.73;;;12.77;;
11255;SDS011;5685;52.384;13.420;2022-10-16T17:22:22;13.57;;;12.67;;
11255;SDS011;5685;52.384;13.420;2022-10-16T17:25:25;13.00;;;12.10;;
11255;SDS011;5685;52.384;13.420;2022-10-16T17:28:29;13.87;;;12.97;;
11255;SDS011;5685;52.384;13.420;2022-10-16T17:31:32;12.90;;;12.03;;
11255;SDS011;5685;52.384;13.420;2022-10-16T17:34:35;12.27;;;11.47;;
11255;SDS011;5685;52.384;13.420;2022-10-16T17:37:38;11.97;;;11.27;;
11255;SDS011;5685;52.384;13.420;2022-10-16T17:40:41;12.67;;;11.77;;
11255;SDS011;5685;52.384;13.420;2022-10-16T17:43:45;14.33;;;13.33;;
11255;SDS011;5685;52.384;13.420;2022-10-16T17:46:49;16.17;;;14.87;;
11255;SDS011;5685;52.384;13.420;2022-10-16T17:49:53;13.80;;;12.90;;
11255;SDS011;5685;52.384;13.420;2022-10-16T17:52:56;13.27;;;12.37;;
11255;SDS011;5685;52.384;13.420;2022-10-16T17:56:00;13.47;;;12.60;;
11255;SDS011;5685;52.384;13.420;2022-10-16T17:59:06;12.97;;;12.17;;
11255;SDS011;5685;52.384;13.420;2022-10-16T18:02:08;12.97;;;12.17;;
11255;SDS011;5685;52.384;13.420;2022-10-16T18:05:11;12.80;;;11.90;;
11255;SDS011;5685;52.384;13.420;2022-10-16T18:08:13;12.93;;;12.13;;
11255;SDS011;5685;52.384;13.420;2022-10-16T18:11:15;13.53;;;12.53;;
11255;SDS011;5685;52.384;13.420;2022-10-16T18:14:18;14.10;;;13.10;;
11255;SDS011;5685;52.384;13.420;2022-10-16T18:17:21;13.03;;;12.23;;
11255;SDS011;5685;52.384;13.420;2022-10-16T18:20:23;13.50;;;12.50;;
11255;SDS011;5685;52.384;13.420;2022-10-16T18:23:25;12.40;;;11.63;;
11255;SDS011;5685;52.384;13.420;2022-10-16T18:26:29;11.87;;;11.17;;
11255;SDS011;5685;52.384;13.420;2022-10-16T18:29:33;11.93;;;11.23;;
11255;SDS011;5685;52.384;13.420;2022-10-16T18:32:36;12.37;;;11.67;;
11255;SDS011;5685;52.384;13.420;2022-10-16T18:35:38;12.50;;;11.70;;